Catàleg de serveis del Meteocat

Dades de l'estació automàtica Sant Pere Pescador

?
?
Resum diari 22:30 TU
Dades diàries de l'estació meteorològica
Temperatura mitjana 10.5 °C
Temperatura màxima 16.1 °C 11:42 TU
Temperatura mínima 7.7 °C 4:50 TU
Humitat relativa mitjana 94%
Precipitació acumulada 0.2 mm
Ratxa màxima del vent (10 m) 14.8 km/h - 269º 20:43 TU
Pressió atmosfèrica mitjana 1001.3 hPa
Irradiació solar global 7.1 MJ/m2

El tram horari està expressat en Temps Universal (TU). Cal sumar una hora en horari d'hivern i dues en horari d'estiu per passar a l'hora oficial.

Sant Pere Pescador

Metadades estació meteorol´gica
Municipi Sant Pere Pescador
Comarca Alt Empordà
Altitud 4 m
Data alta 01.05.1989
Estat actual Operativa
Dades de període
Període
TU
TM
°C
TX
°C
TN
°C
HRM
%
PPT
mm
VVM (10 m)
km/h
DVM (10 m)
graus
VVX (10 m)
km/h
PM
hPa
RS
W/m2
00:00 - 00:30 8.9 9.0 8.9 99 0.0 5.8 289 8.6 1000.9 0
00:30 - 01:00 9.0 9.1 9.0 100 0.0 5.0 297 8.3 1001.0 0
01:00 - 01:30 9.2 9.2 9.1 100 0.1 6.1 294 9.4 1001.0 0
01:30 - 02:00 9.2 9.2 9.1 100 0.0 4.7 321 8.6 1000.9 0
02:00 - 02:30 9.1 9.2 9.1 100 0.0 2.9 335 8.6 1000.7 0
02:30 - 03:00 8.7 9.0 8.3 100 0.0 2.2 335 6.1 1000.5 0
03:00 - 03:30 8.3 8.4 8.3 100 0.0 5.0 300 7.6 1000.4 0
03:30 - 04:00 8.3 8.4 8.3 100 0.0 5.4 286 7.9 1000.4 0
04:00 - 04:30 8.1 8.4 7.8 100 0.0 4.0 247 7.6 1000.5 0
04:30 - 05:00 7.9 8.1 7.7 100 0.0 4.7 234 8.6 1000.6 0
05:00 - 05:30 8.1 8.2 8.0 100 0.0 5.8 237 8.3 1000.7 0
05:30 - 06:00 8.0 8.1 7.9 100 0.0 3.2 245 6.5 1000.8 0
06:00 - 06:30 7.9 8.0 7.8 100 0.0 3.2 238 5.8 1000.9 0
06:30 - 07:00 8.1 8.2 8.0 100 0.0 3.2 226 4.7 1001.2 4
07:00 - 07:30 8.4 8.6 8.2 100 0.0 2.5 236 6.1 1001.6 23
07:30 - 08:00 8.9 9.1 8.6 100 0.0 2.9 248 5.8 1001.6 69
08:00 - 08:30 9.5 9.7 9.1 100 0.0 2.5 241 5.4 1001.7 117
08:30 - 09:00 10.1 11.1 9.7 100 0.0 2.9 302 6.5 1002.0 176
09:00 - 09:30 11.2 11.9 10.7 92 0.0 3.6 309 8.6 1001.9 264
09:30 - 10:00 11.6 12.1 11.4 87 0.0 2.9 284 8.3 1002.1 259
10:00 - 10:30 12.6 14.1 12.0 80 0.0 1.8 13 7.9 1002.2 346
10:30 - 11:00 13.6 14.4 12.9 76 0.0 4.7 268 10.1 1002.1 343
11:00 - 11:30 14.4 15.6 13.1 74 0.0 3.6 71 11.2 1001.6 414
11:30 - 12:00 15.3 16.1 14.4 72 0.0 5.0 53 9.7 1001.4 432
12:00 - 12:30 14.3 14.6 13.9 77 0.0 6.8 91 12.2 1001.2 422
12:30 - 13:00 13.3 13.8 13.1 82 0.0 6.1 92 11.2 1001.0 196
13:00 - 13:30 13.5 13.9 13.3 82 0.0 5.4 119 10.1 1000.9 154
13:30 - 14:00 13.8 14.2 13.3 81 0.0 5.8 125 10.4 1000.7 275
14:00 - 14:30 14.8 15.4 14.2 78 0.0 3.6 142 9.0 1000.5 248
14:30 - 15:00 14.3 14.8 13.8 82 0.0 3.6 146 9.4 1000.4 130
15:00 - 15:30 14.2 14.3 14.0 85 0.0 0.4 117 2.2 1000.5 62
15:30 - 16:00 13.8 14.2 13.2 94 0.0 2.2 119 5.0 1000.7 36
16:00 - 16:30 12.4 13.1 11.5 98 0.0 2.9 103 4.7 1000.9 4
16:30 - 17:00 11.0 11.4 10.4 100 0.0 2.2 7 4.3 1000.9 0
17:00 - 17:30 9.7 10.3 9.3 100 0.0 2.5 17 5.4 1000.9 0
17:30 - 18:00 9.9 10.3 9.4 100 0.0 5.4 314 10.4 1001.0 0
18:00 - 18:30 9.4 10.4 8.7 100 0.0 2.2 329 8.3 1001.3 0
18:30 - 19:00 9.4 9.8 8.7 100 0.0 6.8 291 10.8 1001.7 0
19:00 - 19:30 9.4 9.6 9.2 100 0.0 6.8 293 11.2 1001.9 0
19:30 - 20:00 8.8 9.3 8.4 100 0.0 5.0 295 10.1 1002.1 0
20:00 - 20:30 9.2 9.3 8.9 100 0.0 4.7 289 9.7 1002.1 0
20:30 - 21:00 9.2 9.5 8.8 100 0.0 5.0 260 14.8 1002.3 0
21:00 - 21:30 9.3 9.5 9.2 100 0.0 3.6 146 6.8 1002.4 0
21:30 - 22:00 9.8 9.9 9.5 100 0.0 6.5 106 9.4 1002.2 0
22:00 - 22:30 9.6 9.9 9.4 100 0.1 5.8 316 12.6 1002.7 0
22:30 - 23:00 9.5 9.5 9.3 100 0.0 4.3 310 9.7 1003.1 0

Les dades en taronja només han passat un control de qualitat automàtic. Resta pendent la seva validació definitiva.